createdAt,value
2022-08-25T00:01:14.358Z,82.60
2022-08-25T00:03:41.682Z,82.70
2022-08-25T00:06:11.411Z,82.70
2022-08-25T00:08:39.021Z,82.60
2022-08-25T00:11:06.251Z,83.10
2022-08-25T00:13:33.030Z,82.70
2022-08-25T00:15:59.773Z,82.60
2022-08-25T00:18:26.649Z,82.60
2022-08-25T00:20:53.282Z,82.60
2022-08-25T00:23:20.183Z,82.80
2022-08-25T00:25:47.751Z,82.70
2022-08-25T00:28:15.211Z,82.70
2022-08-25T00:30:41.907Z,82.60
2022-08-25T00:33:08.726Z,82.60
2022-08-25T00:35:35.710Z,82.70
2022-08-25T00:38:02.528Z,82.70
2022-08-25T00:40:29.732Z,82.70
2022-08-25T00:42:56.831Z,82.80
2022-08-25T00:45:23.847Z,82.70
2022-08-25T00:47:50.602Z,82.80
2022-08-25T00:50:17.438Z,82.70
2022-08-25T00:52:46.627Z,82.70
2022-08-25T00:55:19.466Z,82.80
2022-08-25T00:57:48.296Z,82.70
2022-08-25T01:00:17.478Z,82.80
2022-08-25T01:02:44.505Z,82.80
2022-08-25T01:05:11.407Z,82.80
2022-08-25T01:07:38.639Z,82.70
2022-08-25T01:10:08.022Z,82.80
2022-08-25T01:12:34.942Z,82.80
2022-08-25T01:15:02.069Z,82.70
2022-08-25T01:17:35.962Z,82.70
2022-08-25T01:20:03.123Z,82.70
2022-08-25T01:22:29.794Z,82.70
2022-08-25T01:24:59.506Z,82.70
2022-08-25T01:27:26.213Z,82.70
2022-08-25T01:29:53.011Z,82.70
2022-08-25T01:32:19.748Z,82.70
2022-08-25T01:34:46.487Z,82.70
2022-08-25T01:37:14.342Z,82.70
2022-08-25T01:39:41.767Z,82.60
2022-08-25T01:42:14.315Z,82.80
2022-08-25T01:44:43.582Z,82.80
2022-08-25T01:47:10.934Z,82.90
2022-08-25T01:49:38.065Z,82.70
2022-08-25T01:52:12.175Z,82.70
2022-08-25T01:54:38.938Z,82.30
2022-08-25T01:57:05.790Z,82.70
2022-08-25T01:59:32.475Z,82.70
2022-08-25T02:01:59.959Z,82.70
2022-08-25T02:04:32.299Z,82.60
2022-08-25T02:07:00.338Z,82.70
2022-08-25T02:09:27.090Z,82.70
2022-08-25T02:11:53.875Z,82.60
2022-08-25T02:14:20.594Z,82.70
2022-08-25T02:16:49.605Z,82.70
2022-08-25T02:19:17.244Z,82.70
2022-08-25T02:21:44.038Z,82.90
2022-08-25T02:24:12.003Z,82.70
2022-08-25T02:26:38.763Z,82.70
2022-08-25T02:29:06.747Z,82.70
2022-08-25T02:31:33.746Z,82.70
2022-08-25T02:34:02.078Z,82.80
2022-08-25T02:36:29.250Z,82.70
2022-08-25T02:38:55.974Z,82.70
2022-08-25T02:41:25.176Z,82.70
2022-08-25T02:43:58.075Z,82.70
2022-08-25T02:46:25.065Z,82.70
2022-08-25T02:48:53.309Z,82.70
2022-08-25T02:51:21.313Z,82.90
2022-08-25T02:53:48.171Z,82.80
2022-08-25T02:56:15.654Z,82.70
2022-08-25T02:58:42.463Z,82.80
2022-08-25T03:01:11.993Z,82.80
2022-08-25T03:03:40.397Z,82.70
2022-08-25T03:06:09.403Z,82.80
2022-08-25T03:08:36.668Z,82.70
2022-08-25T03:11:03.461Z,83.90
2022-08-25T03:13:30.179Z,82.70
2022-08-25T03:15:56.930Z,82.80
2022-08-25T03:18:23.697Z,82.70
2022-08-25T03:20:51.354Z,82.70
2022-08-25T03:23:18.046Z,83.00
2022-08-25T03:26:03.760Z,82.80
2022-08-25T03:28:33.984Z,82.70
2022-08-25T03:31:01.243Z,82.70
2022-08-25T03:33:28.961Z,82.70
2022-08-25T03:35:55.869Z,83.90
2022-08-25T03:38:23.643Z,82.70
2022-08-25T03:40:50.306Z,83.50
2022-08-25T03:43:17.203Z,82.70
2022-08-25T03:45:44.663Z,82.70
2022-08-25T03:48:11.846Z,82.70
2022-08-25T03:50:44.371Z,82.70
2022-08-25T03:53:19.034Z,82.60
2022-08-25T03:55:45.796Z,82.70
2022-08-25T03:58:12.714Z,82.60
2022-08-25T04:00:39.750Z,82.40
2022-08-25T04:03:06.804Z,82.50
2022-08-25T04:05:33.795Z,83.20
2022-08-25T04:08:01.987Z,82.40
2022-08-25T04:10:29.075Z,82.40
2022-08-25T04:12:56.207Z,82.50
2022-08-25T04:15:30.067Z,82.50
2022-08-25T04:17:58.946Z,82.70
2022-08-25T04:20:26.367Z,82.50
2022-08-25T04:22:53.817Z,82.50
2022-08-25T04:25:20.557Z,82.50
2022-08-25T04:27:47.232Z,82.40
2022-08-25T04:30:14.689Z,82.40
2022-08-25T04:32:41.458Z,82.50
2022-08-25T04:35:08.767Z,82.40
2022-08-25T04:37:35.494Z,82.40
2022-08-25T04:40:02.443Z,82.40
2022-08-25T04:42:29.251Z,82.40
2022-08-25T04:44:56.003Z,82.40
2022-08-25T04:47:22.986Z,82.40
2022-08-25T04:49:49.724Z,82.40
2022-08-25T04:52:16.462Z,82.40
2022-08-25T04:54:43.816Z,82.40
2022-08-25T04:57:10.854Z,82.40
2022-08-25T04:59:37.708Z,82.50
2022-08-25T05:02:05.447Z,82.60
2022-08-25T05:04:34.017Z,82.40
2022-08-25T05:07:00.754Z,82.50
2022-08-25T05:09:27.770Z,82.50
2022-08-25T05:11:54.958Z,82.40
2022-08-25T05:14:25.764Z,82.50
2022-08-25T05:16:53.621Z,82.50
2022-08-25T05:19:20.327Z,82.50
2022-08-25T05:21:47.184Z,83.20
2022-08-25T05:24:13.943Z,82.60
2022-08-25T05:26:40.710Z,82.60
2022-08-25T05:29:07.518Z,82.60
2022-08-25T05:31:41.021Z,82.70
2022-08-25T05:34:09.231Z,82.80
2022-08-25T05:36:35.993Z,83.50
2022-08-25T05:39:03.990Z,82.80
2022-08-25T05:41:30.968Z,82.90
2022-08-25T05:43:57.738Z,83.00
2022-08-25T05:46:24.950Z,83.10
2022-08-25T05:48:52.190Z,83.00
2022-08-25T05:51:19.827Z,83.00
2022-08-25T05:53:47.808Z,83.10
2022-08-25T05:56:14.627Z,83.10
2022-08-25T05:58:43.025Z,83.20
2022-08-25T06:01:29.235Z,83.10
2022-08-25T06:03:56.022Z,83.10
2022-08-25T06:06:23.191Z,83.20
2022-08-25T06:08:49.964Z,83.50
2022-08-25T06:11:16.683Z,83.30
2022-08-25T06:13:43.417Z,83.30
2022-08-25T06:16:10.498Z,83.20
2022-08-25T06:18:37.303Z,83.20
2022-08-25T06:21:07.522Z,83.40
2022-08-25T06:23:34.265Z,83.30
2022-08-25T06:26:00.946Z,83.20
2022-08-25T06:28:27.647Z,83.30
2022-08-25T06:30:58.103Z,83.30
2022-08-25T06:33:24.799Z,83.50
2022-08-25T06:35:53.378Z,83.40
2022-08-25T06:38:20.098Z,83.60
2022-08-25T06:40:52.140Z,83.50
2022-08-25T06:43:22.045Z,83.60
2022-08-25T06:45:49.033Z,83.60
2022-08-25T06:48:15.972Z,83.60
2022-08-25T06:50:43.124Z,83.70
2022-08-25T06:53:10.308Z,83.80
2022-08-25T06:55:37.062Z,84.00
2022-08-25T06:58:04.964Z,84.10
2022-08-25T07:00:32.681Z,84.10
2022-08-25T07:03:01.406Z,84.30
2022-08-25T07:05:42.684Z,84.30
2022-08-25T07:08:11.974Z,84.20
2022-08-25T07:10:38.992Z,83.90
2022-08-25T07:13:05.719Z,83.80
2022-08-25T07:15:32.503Z,84.00
2022-08-25T07:17:59.202Z,84.00
2022-08-25T07:22:57.884Z,84.30
2022-08-25T07:25:24.762Z,84.30
2022-08-25T07:27:53.855Z,84.40
2022-08-25T07:30:23.772Z,84.40
2022-08-25T07:32:54.962Z,84.30
2022-08-25T07:35:26.201Z,84.20
2022-08-25T07:37:59.323Z,84.50
2022-08-25T07:40:28.188Z,84.50
2022-08-25T07:42:56.339Z,84.50
2022-08-25T07:45:29.710Z,84.70
2022-08-25T07:47:57.325Z,84.60
2022-08-25T07:50:24.585Z,84.80
2022-08-25T07:52:55.230Z,85.40
2022-08-25T07:55:23.135Z,84.40
2022-08-25T07:57:55.415Z,84.60
2022-08-25T08:00:24.456Z,84.70
2022-08-25T08:02:51.559Z,85.10
2022-08-25T08:05:18.313Z,85.30
2022-08-25T08:07:45.029Z,85.30
2022-08-25T08:13:00.503Z,85.90
2022-08-25T08:15:29.927Z,85.20
2022-08-25T08:17:57.887Z,85.50
2022-08-25T08:20:25.062Z,85.00
2022-08-25T08:22:52.170Z,85.50
2022-08-25T08:25:21.316Z,86.60
2022-08-25T08:28:01.722Z,86.10
2022-08-25T08:30:28.574Z,85.40
2022-08-25T08:33:11.730Z,85.00
2022-08-25T08:35:39.554Z,84.50
2022-08-25T08:38:14.695Z,84.30
2022-08-25T08:41:07.899Z,84.50
2022-08-25T08:43:35.333Z,85.10
2022-08-25T08:46:03.390Z,85.40
2022-08-25T08:48:37.496Z,84.50
2022-08-25T08:51:09.749Z,84.30
2022-08-25T08:53:42.959Z,83.90
2022-08-25T08:56:11.777Z,83.70
2022-08-25T08:58:44.965Z,83.70
2022-08-25T09:01:15.788Z,84.20
2022-08-25T09:03:44.349Z,83.80
2022-08-25T09:06:20.349Z,83.40
2022-08-25T09:08:47.489Z,83.30
2022-08-25T09:11:33.228Z,83.50
2022-08-25T09:14:13.067Z,83.30
2022-08-25T09:16:56.651Z,83.20
2022-08-25T09:19:26.273Z,83.40
2022-08-25T09:21:52.944Z,83.50
2022-08-25T09:24:19.638Z,83.50
2022-08-25T09:26:52.256Z,83.30
2022-08-25T09:29:21.325Z,83.30
2022-08-25T09:31:48.582Z,83.10
2022-08-25T09:34:20.016Z,83.20
2022-08-25T09:36:48.692Z,83.20
2022-08-25T09:39:15.516Z,83.20
2022-08-25T09:41:47.677Z,83.10
2022-08-25T09:44:18.737Z,83.40
2022-08-25T09:46:57.262Z,83.10
2022-08-25T09:49:30.750Z,83.20
2022-08-25T09:52:16.439Z,82.20
2022-08-25T09:54:46.763Z,83.20
2022-08-25T09:57:32.226Z,83.10
2022-08-25T10:00:10.066Z,83.10
2022-08-25T10:02:37.525Z,83.30
2022-08-25T10:05:24.899Z,83.50
2022-08-25T10:07:54.586Z,83.60
2022-08-25T10:10:25.993Z,83.70
2022-08-25T10:12:52.786Z,83.30
2022-08-25T10:15:29.126Z,83.80
2022-08-25T10:17:59.940Z,83.70
2022-08-25T10:20:35.097Z,83.60
2022-08-25T10:23:13.138Z,83.70
2022-08-25T10:25:59.433Z,83.70
2022-08-25T10:28:37.555Z,83.60
2022-08-25T10:31:18.588Z,83.70
2022-08-25T10:33:52.465Z,83.40
2022-08-25T10:36:28.987Z,83.50
2022-08-25T10:39:01.769Z,83.50
2022-08-25T10:41:34.638Z,83.70
2022-08-25T10:44:42.944Z,83.80
2022-08-25T10:47:22.427Z,83.90
2022-08-25T10:49:53.763Z,83.70
2022-08-25T10:52:23.586Z,84.30
2022-08-25T10:54:58.133Z,83.70
2022-08-25T10:57:31.070Z,83.50
2022-08-25T11:00:01.238Z,83.50
2022-08-25T11:02:47.114Z,83.60
2022-08-25T11:05:13.842Z,84.30
2022-08-25T11:07:45.072Z,83.80
2022-08-25T11:10:15.223Z,83.70
2022-08-25T11:12:59.660Z,83.70
2022-08-25T11:15:29.463Z,83.50
2022-08-25T11:18:14.784Z,83.70
2022-08-25T11:20:49.605Z,83.70
2022-08-25T11:23:22.158Z,83.70
2022-08-25T11:26:11.681Z,83.80
2022-08-25T11:28:54.341Z,83.50
2022-08-25T11:31:22.932Z,83.50
2022-08-25T11:33:50.974Z,83.50
2022-08-25T11:36:29.468Z,83.50
2022-08-25T11:38:56.291Z,83.80
2022-08-25T11:41:38.901Z,83.90
2022-08-25T11:44:14.060Z,83.70
2022-08-25T11:46:59.311Z,83.90
2022-08-25T11:49:44.780Z,83.90
2022-08-25T11:52:30.754Z,84.10
2022-08-25T11:55:17.853Z,83.90
2022-08-25T11:57:53.466Z,83.90
2022-08-25T12:00:20.671Z,83.90
2022-08-25T12:02:48.691Z,83.80
2022-08-25T12:05:15.562Z,83.60
2022-08-25T12:07:48.827Z,83.60
2022-08-25T12:10:16.432Z,83.60
2022-08-25T12:12:43.918Z,83.70
2022-08-25T12:15:30.136Z,83.50
2022-08-25T12:18:12.259Z,83.90
2022-08-25T12:20:56.354Z,83.90
2022-08-25T12:23:37.794Z,83.80
2022-08-25T12:26:20.898Z,84.80
2022-08-25T12:28:47.578Z,83.90
2022-08-25T12:31:44.042Z,83.80
2022-08-25T12:34:10.690Z,83.70
2022-08-25T12:36:39.555Z,84.80
2022-08-25T12:39:16.653Z,83.70
2022-08-25T12:41:56.355Z,83.60
2022-08-25T12:44:35.170Z,83.60
2022-08-25T12:47:14.373Z,83.70
2022-08-25T12:49:41.120Z,83.70
2022-08-25T12:52:12.750Z,83.70
2022-08-25T12:54:47.576Z,83.70
2022-08-25T12:57:33.468Z,83.90
2022-08-25T13:00:05.541Z,83.80
2022-08-25T13:02:49.702Z,83.80
2022-08-25T13:05:19.003Z,83.80
2022-08-25T13:07:55.835Z,83.80
2022-08-25T13:10:24.093Z,84.40
2022-08-25T13:13:01.105Z,83.80
2022-08-25T13:15:38.800Z,83.80
2022-08-25T13:18:17.843Z,83.70
2022-08-25T13:20:45.711Z,83.70
2022-08-25T13:23:16.657Z,83.60
2022-08-25T13:25:48.762Z,83.90
2022-08-25T13:28:24.736Z,83.80
2022-08-25T13:30:57.837Z,83.90
2022-08-25T13:33:24.997Z,83.80
2022-08-25T13:36:13.622Z,83.80
2022-08-25T13:38:40.931Z,83.90
2022-08-25T13:41:16.882Z,83.80
2022-08-25T13:43:44.930Z,83.90
2022-08-25T13:46:12.555Z,83.60
2022-08-25T13:48:49.558Z,83.90
2022-08-25T13:51:19.095Z,83.90
2022-08-25T13:54:00.152Z,83.90
2022-08-25T13:56:35.609Z,83.90
2022-08-25T13:59:07.089Z,83.90
2022-08-25T14:01:48.971Z,83.80
2022-08-25T14:04:24.657Z,83.80
2022-08-25T14:07:10.283Z,83.70
2022-08-25T14:09:45.506Z,83.70
2022-08-25T14:15:09.153Z,83.90
2022-08-25T14:17:39.961Z,83.70
2022-08-25T14:20:22.329Z,83.70
2022-08-25T14:22:51.096Z,83.70
2022-08-25T14:25:17.795Z,83.60
2022-08-25T14:28:06.966Z,83.60
2022-08-25T14:30:33.519Z,83.70
2022-08-25T14:33:00.979Z,83.80
2022-08-25T14:35:29.487Z,83.70
2022-08-25T14:37:58.143Z,83.60
2022-08-25T14:40:24.910Z,83.50
2022-08-25T14:42:51.754Z,83.40
2022-08-25T14:45:18.637Z,83.50
2022-08-25T14:47:49.760Z,83.30
2022-08-25T14:50:20.141Z,83.00
2022-08-25T14:52:48.326Z,82.90
2022-08-25T14:55:30.790Z,82.40
2022-08-25T14:57:58.596Z,82.10
2022-08-25T15:00:25.848Z,82.00
2022-08-25T15:02:52.971Z,82.00
2022-08-25T15:05:26.953Z,82.10
2022-08-25T15:08:14.007Z,82.10
2022-08-25T15:10:41.991Z,82.10
2022-08-25T15:13:10.356Z,82.00
2022-08-25T15:15:38.202Z,82.00
2022-08-25T15:18:05.571Z,82.10
2022-08-25T15:20:33.016Z,82.20
2022-08-25T15:22:59.895Z,82.20
2022-08-25T15:25:26.912Z,82.30
2022-08-25T15:27:54.351Z,82.20
2022-08-25T15:30:21.294Z,82.30
2022-08-25T15:32:57.790Z,82.30
2022-08-25T15:35:27.741Z,82.30
2022-08-25T15:37:55.872Z,82.30
2022-08-25T15:40:22.717Z,82.30
2022-08-25T15:42:49.591Z,82.30
2022-08-25T15:45:16.552Z,83.00
2022-08-25T15:47:44.863Z,82.30
2022-08-25T15:50:14.752Z,82.30
2022-08-25T15:52:47.727Z,82.40
2022-08-25T15:55:16.415Z,82.40
2022-08-25T15:57:43.154Z,82.50
2022-08-25T16:00:11.431Z,83.50
2022-08-25T16:02:40.266Z,83.00
2022-08-25T16:05:08.174Z,82.80
2022-08-25T16:07:35.546Z,82.70
2022-08-25T16:10:03.990Z,82.90
2022-08-25T16:12:30.869Z,82.80
2022-08-25T16:14:57.615Z,82.70
2022-08-25T16:17:25.285Z,82.80
2022-08-25T16:19:51.975Z,82.70
2022-08-25T16:22:18.646Z,82.70
2022-08-25T16:24:45.638Z,82.80
2022-08-25T16:27:13.094Z,82.70
2022-08-25T16:29:41.882Z,82.70
2022-08-25T16:32:08.874Z,82.70
2022-08-25T16:34:35.922Z,82.70
2022-08-25T16:37:02.947Z,82.70
2022-08-25T16:39:31.295Z,82.70
2022-08-25T16:41:58.150Z,82.90
2022-08-25T16:44:25.777Z,82.80
2022-08-25T16:46:54.286Z,82.90
2022-08-25T16:49:21.699Z,82.80
2022-08-25T16:51:57.081Z,82.70
2022-08-25T16:54:43.728Z,82.80
2022-08-25T16:57:10.731Z,82.80
2022-08-25T16:59:37.402Z,82.80
2022-08-25T17:02:04.233Z,82.90
2022-08-25T17:04:32.159Z,82.90
2022-08-25T17:06:59.206Z,82.80
2022-08-25T17:09:25.931Z,82.80
2022-08-25T17:11:56.768Z,82.90
2022-08-25T17:14:23.898Z,82.90
2022-08-25T17:16:54.613Z,82.90
2022-08-25T17:19:22.195Z,82.90
2022-08-25T17:21:50.798Z,82.80
2022-08-25T17:24:17.760Z,82.80
2022-08-25T17:26:46.410Z,82.80
2022-08-25T17:29:13.192Z,82.80
2022-08-25T17:31:40.292Z,82.80
2022-08-25T17:34:08.678Z,82.80
2022-08-25T17:36:35.466Z,82.80
2022-08-25T17:39:03.033Z,82.80
2022-08-25T17:41:30.168Z,82.80
2022-08-25T17:43:57.150Z,82.90
2022-08-25T17:46:24.481Z,82.90
2022-08-25T17:48:51.359Z,82.90
2022-08-25T17:51:18.129Z,82.90
2022-08-25T17:53:44.979Z,82.90
2022-08-25T17:56:14.910Z,83.00
2022-08-25T17:58:41.870Z,83.00
2022-08-25T18:01:14.859Z,82.90
2022-08-25T18:03:43.522Z,83.10
2022-08-25T18:06:11.806Z,83.10
2022-08-25T18:08:42.945Z,83.00
2022-08-25T18:11:09.873Z,83.00
2022-08-25T18:13:38.665Z,83.00
2022-08-25T18:16:05.510Z,83.10
2022-08-25T18:18:34.351Z,83.70
2022-08-25T18:21:01.898Z,83.00
2022-08-25T18:23:28.733Z,83.10
2022-08-25T18:26:00.989Z,83.80
2022-08-25T18:28:28.806Z,83.10
2022-08-25T18:30:55.972Z,83.10
2022-08-25T18:33:23.058Z,83.10
2022-08-25T18:35:49.785Z,83.80
2022-08-25T18:38:36.502Z,83.10
2022-08-25T18:41:05.837Z,83.10
2022-08-25T18:43:34.032Z,83.20
2022-08-25T18:46:01.713Z,83.20
2022-08-25T18:48:28.461Z,83.20
2022-08-25T18:50:56.627Z,83.20
2022-08-25T18:53:36.724Z,83.20
2022-08-25T18:56:04.774Z,83.10
2022-08-25T18:58:31.425Z,83.10
2022-08-25T19:00:58.164Z,83.20
2022-08-25T19:03:25.179Z,83.20
2022-08-25T19:05:57.201Z,83.10
2022-08-25T19:08:24.619Z,83.20
2022-08-25T19:10:53.314Z,83.50
2022-08-25T19:13:22.512Z,83.90
2022-08-25T19:15:51.294Z,83.30
2022-08-25T19:18:18.645Z,83.20
2022-08-25T19:20:52.715Z,83.20
2022-08-25T19:23:19.803Z,83.20
2022-08-25T19:25:46.744Z,83.20
2022-08-25T19:28:13.584Z,83.20
2022-08-25T19:30:49.838Z,83.10
2022-08-25T19:33:42.318Z,83.30
2022-08-25T19:36:05.386Z,83.30
2022-08-25T19:38:35.674Z,83.10
2022-08-25T19:41:10.395Z,83.10
2022-08-25T19:43:56.757Z,83.20
2022-08-25T19:46:32.168Z,83.20
2022-08-25T19:49:06.309Z,83.20
2022-08-25T19:51:34.875Z,83.20
2022-08-25T19:54:02.892Z,83.20
2022-08-25T19:56:30.306Z,83.20
2022-08-25T19:58:57.605Z,83.30
2022-08-25T20:01:24.561Z,83.20
2022-08-25T20:03:52.178Z,83.20
2022-08-25T20:06:19.141Z,83.30
2022-08-25T20:08:46.046Z,83.30
2022-08-25T20:11:12.875Z,83.30
2022-08-25T20:13:39.938Z,83.40
2022-08-25T20:16:06.932Z,83.50
2022-08-25T20:18:33.733Z,83.30
2022-08-25T20:21:00.451Z,83.90
2022-08-25T20:23:46.346Z,83.20
2022-08-25T20:26:13.011Z,83.30
2022-08-25T20:28:42.288Z,83.20
2022-08-25T20:31:09.216Z,83.10
2022-08-25T20:33:36.119Z,83.10
2022-08-25T20:36:04.773Z,83.10
2022-08-25T20:38:32.065Z,83.10
2022-08-25T20:41:00.739Z,83.00
2022-08-25T20:43:29.670Z,83.00
2022-08-25T20:46:02.562Z,83.10
2022-08-25T20:48:30.378Z,82.90
2022-08-25T20:50:57.812Z,82.90
2022-08-25T20:53:25.486Z,82.80
2022-08-25T20:55:52.293Z,82.90
2022-08-25T20:58:18.985Z,82.90
2022-08-25T21:00:46.094Z,82.80
2022-08-25T21:03:12.810Z,82.80
2022-08-25T21:05:40.452Z,82.90
2022-08-25T21:08:08.707Z,82.80
2022-08-25T21:10:35.822Z,82.90
2022-08-25T21:13:02.557Z,82.90
2022-08-25T21:15:30.002Z,82.90
2022-08-25T21:17:56.793Z,82.80
2022-08-25T21:20:24.100Z,82.90
2022-08-25T21:26:18.188Z,82.80
2022-08-25T21:28:47.532Z,82.90
2022-08-25T21:31:15.304Z,82.80
2022-08-25T21:33:43.230Z,82.80
2022-08-25T21:36:11.706Z,82.80
2022-08-25T21:38:40.000Z,82.90
2022-08-25T21:41:10.773Z,82.80
2022-08-25T21:43:37.995Z,82.80
2022-08-25T21:46:05.980Z,82.80
2022-08-25T21:48:34.010Z,82.90
2022-08-25T21:51:27.380Z,82.30
2022-08-25T21:54:08.982Z,82.90
2022-08-25T21:56:40.238Z,82.90
2022-08-25T21:59:08.643Z,82.90
2022-08-25T22:01:35.705Z,83.00
2022-08-25T22:04:05.266Z,83.00
2022-08-25T22:06:32.318Z,83.10
2022-08-25T22:08:59.094Z,83.20
2022-08-25T22:11:26.158Z,83.00
2022-08-25T22:13:53.278Z,83.70
2022-08-25T22:16:22.011Z,83.10
2022-08-25T22:18:49.785Z,83.10
2022-08-25T22:21:18.631Z,83.10
2022-08-25T22:23:45.445Z,83.10
2022-08-25T22:26:15.262Z,83.20
2022-08-25T22:28:46.560Z,83.20
2022-08-25T22:31:14.051Z,83.20
2022-08-25T22:33:47.526Z,83.20
2022-08-25T22:36:15.962Z,83.20
2022-08-25T22:38:43.629Z,83.30
2022-08-25T22:41:10.979Z,83.30
2022-08-25T22:43:38.627Z,83.30
2022-08-25T22:46:06.442Z,83.30
2022-08-25T22:48:38.144Z,83.30
2022-08-25T22:51:05.060Z,83.30
2022-08-25T22:53:34.238Z,83.20
2022-08-25T22:56:02.187Z,83.30
2022-08-25T22:58:29.463Z,83.30
2022-08-25T23:00:57.041Z,83.30
2022-08-25T23:03:24.400Z,83.30
2022-08-25T23:05:51.179Z,83.20
2022-08-25T23:08:17.931Z,83.30
2022-08-25T23:11:04.946Z,83.30
2022-08-25T23:13:34.238Z,83.30
2022-08-25T23:16:01.530Z,83.20
2022-08-25T23:18:29.212Z,83.30
2022-08-25T23:21:15.292Z,83.20
2022-08-25T23:23:43.329Z,83.30
2022-08-25T23:26:10.678Z,83.30
2022-08-25T23:28:37.501Z,83.30
2022-08-25T23:31:08.649Z,83.20
2022-08-25T23:33:38.462Z,83.30
2022-08-25T23:36:07.248Z,83.30
2022-08-25T23:38:34.103Z,83.30
2022-08-25T23:41:06.128Z,83.30
2022-08-25T23:43:32.800Z,83.30
2022-08-25T23:46:00.251Z,83.30
2022-08-25T23:48:28.934Z,83.30
2022-08-25T23:50:55.999Z,83.30
2022-08-25T23:53:22.794Z,83.30
2022-08-25T23:55:53.924Z,83.40
2022-08-25T23:58:21.077Z,83.30
